Time,TemperatureF,DewpointF,PressureIn,WindDirection,WindDirectionDegrees,WindSpeedMPH,WindSpeedGustMPH,Humidity,HourlyPrecipIn,Conditions,Clouds,dailyrainin,SoftwareType,DateUTC
2013-01-09 00:00:00,32.3,31.5,29.91,North,0,0.0,0.0,97,0.00,,,0.00,Wunderground v.1.12,2013-01-09 07:00:00,
2013-01-09 00:10:00,32.1,31.3,29.90,North,0,0.0,0.0,97,0.00,,,0.00,Wunderground v.1.12,2013-01-09 07:10:00,
2013-01-09 00:15:00,32.0,31.2,29.90,North,0,0.0,0.0,97,0.00,,,0.00,Wunderground v.1.12,2013-01-09 07:15:00,
2013-01-09 00:20:00,31.7,30.9,29.90,North,0,0.0,0.0,97,0.00,,,0.00,Wunderground v.1.12,2013-01-09 07:20:00,
2013-01-09 00:25:00,31.7,30.9,29.90,North,0,0.0,0.0,97,0.00,,,0.00,Wunderground v.1.12,2013-01-09 07:25:00,
2013-01-09 00:30:00,32.2,31.4,29.90,North,0,0.0,0.0,97,0.00,,,0.00,Wunderground v.1.12,2013-01-09 07:30:00,
2013-01-09 00:40:00,31.8,31.0,29.90,North,0,0.0,0.0,97,0.00,,,0.00,Wunderground v.1.12,2013-01-09 07:40:00,
2013-01-09 00:45:00,32.3,31.5,29.89,North,0,0.0,0.0,97,0.00,,,0.00,Wunderground v.1.12,2013-01-09 07:45:00,
2013-01-09 00:50:00,31.7,30.9,29.89,North,0,0.0,0.0,97,0.00,,,0.00,Wunderground v.1.12,2013-01-09 07:50:00,
2013-01-09 00:55:00,32.5,32.0,29.89,North,0,0.0,0.0,98,0.00,,,0.00,Wunderground v.1.12,2013-01-09 07:55:00,
2013-01-09 01:00:00,32.5,32.0,29.89,North,0,0.0,0.0,98,0.00,,,0.00,Wunderground v.1.12,2013-01-09 08:00:00,
2013-01-09 01:05:00,32.1,31.3,29.89,North,0,0.0,0.0,97,0.00,,,0.00,Wunderground v.1.12,2013-01-09 08:05:00,
2013-01-09 01:15:00,32.1,31.3,29.89,North,0,0.0,0.0,97,0.00,,,0.00,Wunderground v.1.12,2013-01-09 08:15:00,
2013-01-09 01:20:00,32.1,31.3,29.89,North,0,0.0,0.0,97,0.00,,,0.00,Wunderground v.1.12,2013-01-09 08:20:00,
2013-01-09 01:25:00,32.2,31.7,29.88,North,0,0.0,0.0,98,0.00,,,0.00,Wunderground v.1.12,2013-01-09 08:25:00,
2013-01-09 01:30:00,32.1,31.6,29.88,North,0,0.0,0.0,98,0.00,,,0.00,Wunderground v.1.12,2013-01-09 08:30:00,
2013-01-09 01:35:00,32.1,31.6,29.88,North,0,0.0,0.0,98,0.00,,,0.00,Wunderground v.1.12,2013-01-09 08:35:00,
2013-01-09 01:40:00,31.7,31.2,29.88,NE,54,0.0,0.0,98,0.00,,,0.00,Wunderground v.1.12,2013-01-09 08:40:00,
2013-01-09 01:45:00,32.1,31.6,29.88,NE,54,0.0,0.0,98,0.00,,,0.00,Wunderground v.1.12,2013-01-09 08:45:00,
2013-01-09 01:50:00,31.7,31.2,29.88,NE,53,0.0,0.0,98,0.00,,,0.00,Wunderground v.1.12,2013-01-09 08:50:00,
2013-01-09 01:55:00,31.9,31.4,29.88,NE,53,0.0,0.0,98,0.00,,,0.00,Wunderground v.1.12,2013-01-09 08:55:00,
2013-01-09 02:00:00,32.2,31.7,29.88,NE,52,0.0,0.0,98,0.00,,,0.00,Wunderground v.1.12,2013-01-09 09:00:00,
2013-01-09 02:05:00,32.1,31.6,29.88,NE,56,0.0,0.0,98,0.00,,,0.00,Wunderground v.1.12,2013-01-09 09:05:00,
2013-01-09 02:15:00,31.8,31.6,29.88,NE,55,0.0,0.0,99,0.00,,,0.00,Wunderground v.1.12,2013-01-09 09:15:00,
2013-01-09 02:20:00,32.2,31.7,29.88,NE,55,0.0,0.0,98,0.00,,,0.00,Wunderground v.1.12,2013-01-09 09:20:00,
2013-01-09 02:25:00,32.2,32.0,29.88,NE,54,0.0,0.0,99,0.00,,,0.00,Wunderground v.1.12,2013-01-09 09:25:00,
2013-01-09 02:30:00,32.2,32.0,29.88,NE,54,0.0,0.0,99,0.00,,,0.00,Wunderground v.1.12,2013-01-09 09:30:00,
2013-01-09 02:35:00,31.8,31.6,29.88,NE,54,0.0,0.0,99,0.00,,,0.00,Wunderground v.1.12,2013-01-09 09:35:00,
2013-01-09 02:40:00,32.0,31.8,29.88,NE,54,0.0,0.0,99,0.00,,,0.00,Wunderground v.1.12,2013-01-09 09:40:00,
2013-01-09 02:50:00,32.4,32.4,29.87,NE,54,0.0,0.0,100,0.00,,,0.00,Wunderground v.1.12,2013-01-09 09:50:00,
2013-01-09 02:55:00,31.8,31.8,29.87,NE,54,0.0,0.0,100,0.00,,,0.00,Wunderground v.1.12,2013-01-09 09:55:00,
2013-01-09 03:00:00,31.9,31.9,29.87,NE,54,0.0,0.0,100,0.00,,,0.00,Wunderground v.1.12,2013-01-09 10:00:00,
2013-01-09 03:05:00,32.1,32.1,29.88,ENE,58,0.0,0.0,100,0.00,,,0.00,Wunderground v.1.12,2013-01-09 10:05:00,
2013-01-09 03:10:00,32.4,32.4,29.87,NE,47,0.0,0.0,100,0.00,,,0.00,Wunderground v.1.12,2013-01-09 10:10:00,
2013-01-09 03:20:00,32.7,32.7,29.87,North,0,0.0,0.0,100,0.00,,,0.00,Wunderground v.1.12,2013-01-09 10:20:00,
2013-01-09 03:25:00,33.5,33.5,29.86,NE,53,0.0,0.0,100,0.00,,,0.00,Wunderground v.1.12,2013-01-09 10:25:00,
2013-01-09 03:30:00,33.3,33.3,29.87,NE,39,0.0,0.0,100,0.00,,,0.00,Wunderground v.1.12,2013-01-09 10:30:00,
2013-01-09 03:35:00,34.0,34.0,29.87,WNW,298,0.0,0.0,100,0.00,,,0.00,Wunderground v.1.12,2013-01-09 10:35:00,
2013-01-09 03:40:00,33.6,33.6,29.87,NW,313,0.0,0.0,100,0.00,,,0.00,Wunderground v.1.12,2013-01-09 10:40:00,
2013-01-09 03:45:00,33.6,33.6,29.87,West,270,0.0,0.0,100,0.00,,,0.00,Wunderground v.1.12,2013-01-09 10:45:00,
2013-01-09 03:55:00,33.8,33.8,29.87,NW,308,1.0,1.0,100,0.00,,,0.00,Wunderground v.1.12,2013-01-09 10:55:00,
2013-01-09 04:00:00,33.8,33.8,29.86,NW,317,0.0,0.0,100,0.00,,,0.00,Wunderground v.1.12,2013-01-09 11:00:00,
2013-01-09 04:05:00,34.4,34.4,29.86,NE,49,0.0,0.0,100,0.00,,,0.00,Wunderground v.1.12,2013-01-09 11:05:00,
2013-01-09 04:10:00,34.6,34.6,29.86,WNW,298,0.0,0.0,100,0.00,,,0.00,Wunderground v.1.12,2013-01-09 11:10:00,
2013-01-09 04:15:00,34.4,34.4,29.86,WNW,300,0.0,0.0,100,0.00,,,0.00,Wunderground v.1.12,2013-01-09 11:15:00,
2013-01-09 04:25:00,34.2,34.2,29.86,NW,315,0.0,0.0,100,0.00,,,0.00,Wunderground v.1.12,2013-01-09 11:25:00,
2013-01-09 04:30:00,34.3,34.3,29.86,NE,54,0.0,0.0,100,0.00,,,0.00,Wunderground v.1.12,2013-01-09 11:30:00,
2013-01-09 04:35:00,34.2,34.2,29.86,ENE,66,0.0,0.0,100,0.00,,,0.00,Wunderground v.1.12,2013-01-09 11:35:00,
2013-01-09 04:40:00,34.7,34.7,29.86,NE,36,0.0,0.0,100,0.00,,,0.00,Wunderground v.1.12,2013-01-09 11:40:00,
2013-01-09 04:45:00,34.3,34.3,29.87,WNW,302,0.0,0.0,100,0.00,,,0.00,Wunderground v.1.12,2013-01-09 11:45:00,
2013-01-09 04:55:00,34.5,34.5,29.87,NW,317,0.0,0.0,100,0.00,,,0.00,Wunderground v.1.12,2013-01-09 11:55:00,
2013-01-09 05:00:00,34.1,34.1,29.87,NE,35,0.0,0.0,100,0.00,,,0.00,Wunderground v.1.12,2013-01-09 12:00:00,
2013-01-09 05:05:00,34.7,34.7,29.87,NE,35,0.0,0.0,100,0.00,,,0.00,Wunderground v.1.12,2013-01-09 12:05:00,
2013-01-09 05:10:00,34.5,34.5,29.86,WNW,286,0.0,0.0,100,0.00,,,0.00,Wunderground v.1.12,2013-01-09 12:10:00,
2013-01-09 05:15:00,34.5,34.5,29.86,WNW,295,0.0,0.0,100,0.00,,,0.00,Wunderground v.1.12,2013-01-09 12:15:00,
2013-01-09 05:20:00,34.6,34.6,29.87,NE,34,0.0,0.0,100,0.00,,,0.00,Wunderground v.1.12,2013-01-09 12:20:00,
2013-01-09 05:25:00,34.4,34.4,29.87,WSW,255,0.0,0.0,100,0.00,,,0.00,Wunderground v.1.12,2013-01-09 12:25:00,
2013-01-09 05:30:00,35.1,35.1,29.87,WNW,283,0.0,0.0,100,0.00,,,0.00,Wunderground v.1.12,2013-01-09 12:30:00,
2013-01-09 05:35:00,34.9,34.9,29.87,WNW,288,0.0,0.0,100,0.00,,,0.00,Wunderground v.1.12,2013-01-09 12:35:00,
2013-01-09 05:40:00,35.1,35.1,29.87,WNW,287,0.0,0.0,100,0.00,,,0.00,Wunderground v.1.12,2013-01-09 12:40:00,
2013-01-09 05:45:00,34.9,34.9,29.86,WNW,287,0.0,0.0,100,0.00,,,0.00,Wunderground v.1.12,2013-01-09 12:45:00,
2013-01-09 05:50:00,35.1,35.1,29.86,WNW,288,0.0,0.0,100,0.00,,,0.00,Wunderground v.1.12,2013-01-09 12:50:00,
2013-01-09 06:00:00,34.9,34.9,29.86,ENE,63,0.0,0.0,100,0.00,,,0.00,Wunderground v.1.12,2013-01-09 13:00:00,
2013-01-09 06:05:00,35.1,35.1,29.86,NE,56,0.0,0.0,100,0.00,,,0.00,Wunderground v.1.12,2013-01-09 13:05:00,
2013-01-09 06:10:00,35.2,35.2,29.86,West,267,0.0,0.0,100,0.00,,,0.00,Wunderground v.1.12,2013-01-09 13:10:00,
2013-01-09 06:15:00,35.5,35.2,29.85,East,81,0.0,0.0,99,0.00,,,0.00,Wunderground v.1.12,2013-01-09 13:15:00,
2013-01-09 06:20:00,35.7,35.2,29.85,West,273,0.0,0.0,98,0.00,,,0.00,Wunderground v.1.12,2013-01-09 13:20:00,
2013-01-09 06:25:00,35.7,35.2,29.86,NNW,336,0.0,0.0,98,0.00,,,0.00,Wunderground v.1.12,2013-01-09 13:25:00,
2013-01-09 06:30:00,36.0,35.2,29.86,NE,38,0.0,0.0,97,0.00,,,0.00,Wunderground v.1.12,2013-01-09 13:30:00,
2013-01-09 06:35:00,35.5,34.7,29.84,West,270,0.0,1.0,97,0.00,,,0.00,Wunderground v.1.12,2013-01-09 13:35:00,
2013-01-09 06:40:00,36.5,34.9,29.86,West,279,0.0,0.0,94,0.00,,,0.00,Wunderground v.1.12,2013-01-09 13:40:00,
2013-01-09 06:45:00,36.8,35.0,29.86,ENE,77,0.0,0.0,93,0.00,,,0.00,Wunderground v.1.12,2013-01-09 13:45:00,
2013-01-09 06:50:00,36.9,34.8,29.86,WSW,242,0.0,0.0,92,0.00,,,0.00,Wunderground v.1.12,2013-01-09 13:50:00,
2013-01-09 06:55:00,37.4,35.0,29.86,West,277,0.0,0.0,91,0.00,,,0.00,Wunderground v.1.12,2013-01-09 13:55:00,
2013-01-09 07:05:00,37.5,34.8,29.85,WNW,282,0.0,0.0,90,0.00,,,0.00,Wunderground v.1.12,2013-01-09 14:05:00,
2013-01-09 07:10:00,37.5,34.6,29.85,West,274,0.0,0.0,89,0.00,,,0.00,Wunderground v.1.12,2013-01-09 14:10:00,
2013-01-09 07:15:00,37.8,34.8,29.85,ENE,60,0.0,0.0,89,0.00,,,0.00,Wunderground v.1.12,2013-01-09 14:15:00,
2013-01-09 07:20:00,37.7,34.5,29.85,West,278,0.0,0.0,88,0.00,,,0.00,Wunderground v.1.12,2013-01-09 14:20:00,
2013-01-09 07:25:00,37.9,34.7,29.85,West,271,0.0,0.0,88,0.00,,,0.00,Wunderground v.1.12,2013-01-09 14:25:00,
2013-01-09 07:35:00,37.9,34.7,29.85,NE,56,0.0,0.0,88,0.00,,,0.00,Wunderground v.1.12,2013-01-09 14:35:00,
2013-01-09 07:40:00,37.9,34.4,29.85,West,262,0.0,0.0,87,0.00,,,0.00,Wunderground v.1.12,2013-01-09 14:40:00,
2013-01-09 07:45:00,38.1,34.3,29.85,NE,48,0.0,0.0,86,0.00,,,0.00,Wunderground v.1.12,2013-01-09 14:45:00,
2013-01-09 07:50:00,38.5,34.7,29.84,West,265,0.0,0.0,86,0.00,,,0.00,Wunderground v.1.12,2013-01-09 14:50:00,
2013-01-09 07:55:00,38.1,34.0,29.85,West,264,0.0,0.0,85,0.00,,,0.00,Wunderground v.1.12,2013-01-09 14:55:00,
2013-01-09 08:05:00,38.6,34.5,29.85,West,270,0.0,0.0,85,0.00,,,0.00,Wunderground v.1.12,2013-01-09 15:05:00,
2013-01-09 08:10:00,38.0,34.2,29.85,West,274,0.0,0.0,86,0.00,,,0.00,Wunderground v.1.12,2013-01-09 15:10:00,
2013-01-09 08:15:00,38.5,34.1,29.85,West,278,0.0,0.0,84,0.00,,,0.00,Wunderground v.1.12,2013-01-09 15:15:00,
2013-01-09 08:20:00,38.8,34.4,29.85,West,280,0.0,0.0,84,0.00,,,0.00,Wunderground v.1.12,2013-01-09 15:20:00,
2013-01-09 08:25:00,38.4,34.0,29.85,West,274,0.0,0.0,84,0.00,,,0.00,Wunderground v.1.12,2013-01-09 15:25:00,
2013-01-09 08:30:00,38.6,34.2,29.85,West,278,0.0,0.0,84,0.00,,,0.00,Wunderground v.1.12,2013-01-09 15:30:00,
2013-01-09 08:40:00,39.0,34.6,29.85,NE,54,0.0,0.0,84,0.00,,,0.00,Wunderground v.1.12,2013-01-09 15:40:00,
2013-01-09 08:45:00,39.0,34.3,29.85,ENE,71,0.0,0.0,83,0.00,,,0.00,Wunderground v.1.12,2013-01-09 15:45:00,
2013-01-09 08:50:00,39.2,34.8,29.85,WNW,284,1.0,1.0,84,0.00,,,0.00,Wunderground v.1.12,2013-01-09 15:50:00,
2013-01-09 08:55:00,39.6,34.9,29.85,WNW,292,0.0,0.0,83,0.00,,,0.00,Wunderground v.1.12,2013-01-09 15:55:00,
2013-01-09 09:00:00,39.5,34.8,29.85,WNW,294,0.0,0.0,83,0.00,,,0.00,Wunderground v.1.12,2013-01-09 16:00:00,
2013-01-09 09:10:00,39.4,34.7,29.85,NW,315,0.0,0.0,83,0.00,,,0.00,Wunderground v.1.12,2013-01-09 16:10:00,
2013-01-09 09:15:00,39.5,34.5,29.85,NW,323,0.0,0.0,82,0.00,,,0.00,Wunderground v.1.12,2013-01-09 16:15:00,
2013-01-09 09:20:00,39.6,34.9,29.85,NW,318,3.0,3.0,83,0.00,,,0.00,Wunderground v.1.12,2013-01-09 16:20:00,
2013-01-09 09:25:00,39.8,35.1,29.85,NW,326,0.0,0.0,83,0.00,,,0.00,Wunderground v.1.12,2013-01-09 16:25:00,
2013-01-09 09:30:00,39.6,35.2,29.85,NNW,343,0.0,0.0,84,0.00,,,0.00,Wunderground v.1.12,2013-01-09 16:30:00,
2013-01-09 09:35:00,39.3,34.9,29.85,NNW,347,0.0,0.0,84,0.00,,,0.00,Wunderground v.1.12,2013-01-09 16:35:00,
2013-01-09 09:40:00,39.7,35.6,29.84,NNW,337,0.0,0.0,85,0.00,,,0.00,Wunderground v.1.12,2013-01-09 16:40:00,
2013-01-09 09:45:00,39.8,35.7,29.84,NNW,348,0.0,0.0,85,0.00,,,0.00,Wunderground v.1.12,2013-01-09 16:45:00,
2013-01-09 09:50:00,39.5,35.7,29.84,NNW,347,0.0,0.0,86,0.00,,,0.00,Wunderground v.1.12,2013-01-09 16:50:00,
2013-01-09 09:55:00,39.8,36.2,29.84,North,350,0.0,0.0,87,0.00,,,0.00,Wunderground v.1.12,2013-01-09 16:55:00,
2013-01-09 10:00:00,40.0,36.7,29.84,NNW,348,0.0,0.0,88,0.00,,,0.00,Wunderground v.1.12,2013-01-09 17:00:00,
2013-01-09 10:05:00,39.6,36.3,29.84,NNW,348,0.0,0.0,88,0.00,,,0.00,Wunderground v.1.12,2013-01-09 17:05:00,
2013-01-09 10:15:00,39.8,36.8,29.84,North,351,0.0,0.0,89,0.00,,,0.00,Wunderground v.1.12,2013-01-09 17:15:00,
2013-01-09 10:20:00,39.7,37.0,29.84,North,354,0.0,0.0,90,0.00,,,0.00,Wunderground v.1.12,2013-01-09 17:20:00,
2013-01-09 10:25:00,39.6,36.9,29.84,North,350,0.0,0.0,90,0.00,,,0.00,Wunderground v.1.12,2013-01-09 17:25:00,
2013-01-09 10:30:00,39.3,36.9,29.84,North,349,0.0,0.0,91,0.00,,,0.00,Wunderground v.1.12,2013-01-09 17:30:00,
2013-01-09 10:35:00,39.4,37.0,29.83,SW,230,0.0,0.0,91,0.00,,,0.00,Wunderground v.1.12,2013-01-09 17:35:00,
2013-01-09 10:45:00,39.7,37.6,29.83,NNW,344,8.0,8.0,92,0.00,,,0.00,Wunderground v.1.12,2013-01-09 17:45:00,
2013-01-09 10:50:00,39.3,37.4,29.83,North,356,0.0,0.0,93,0.00,,,0.00,Wunderground v.1.12,2013-01-09 17:50:00,
2013-01-09 10:55:00,39.5,37.6,29.82,North,351,5.0,5.0,93,0.00,,,0.00,Wunderground v.1.12,2013-01-09 17:55:00,
2013-01-09 11:00:00,39.2,37.3,29.82,North,354,6.0,6.0,93,0.00,,,0.00,Wunderground v.1.12,2013-01-09 18:00:00,
2013-01-09 11:05:00,39.3,37.4,29.82,North,355,0.0,0.0,93,0.00,,,0.00,Wunderground v.1.12,2013-01-09 18:05:00,
2013-01-09 11:10:00,39.3,37.4,29.82,North,355,0.0,0.0,93,0.00,,,0.00,Wunderground v.1.12,2013-01-09 18:10:00,
2013-01-09 11:20:00,39.4,37.8,29.81,North,356,0.0,0.0,94,0.00,,,0.00,Wunderground v.1.12,2013-01-09 18:20:00,
2013-01-09 11:25:00,39.2,37.6,29.81,North,356,0.0,0.0,94,0.00,,,0.00,Wunderground v.1.12,2013-01-09 18:25:00,
2013-01-09 11:30:00,39.4,37.8,29.80,North,356,0.0,0.0,94,0.00,,,0.00,Wunderground v.1.12,2013-01-09 18:30:00,
2013-01-09 11:35:00,39.1,37.8,29.80,ENE,69,0.0,0.0,95,0.00,,,0.00,Wunderground v.1.12,2013-01-09 18:35:00,
2013-01-09 11:40:00,39.0,37.7,29.79,North,357,0.0,0.0,95,0.00,,,0.00,Wunderground v.1.12,2013-01-09 18:40:00,
2013-01-09 11:45:00,39.1,37.8,29.78,North,357,0.0,0.0,95,0.00,,,0.00,Wunderground v.1.12,2013-01-09 18:45:00,
2013-01-09 11:50:00,39.3,38.0,29.79,North,356,0.0,0.0,95,0.00,,,0.00,Wunderground v.1.12,2013-01-09 18:50:00,
2013-01-09 11:55:00,39.1,38.1,29.78,North,357,0.0,0.0,96,0.00,,,0.00,Wunderground v.1.12,2013-01-09 18:55:00,
2013-01-09 12:00:00,39.3,38.3,29.77,North,7,0.0,0.0,96,0.00,,,0.00,Wunderground v.1.12,2013-01-09 19:00:00,
2013-01-09 12:05:00,39.4,38.4,29.77,NE,46,0.0,0.0,96,0.00,,,0.00,Wunderground v.1.12,2013-01-09 19:05:00,
2013-01-09 12:10:00,38.9,37.9,29.76,NE,47,0.0,0.0,96,0.00,,,0.00,Wunderground v.1.12,2013-01-09 19:10:00,
2013-01-09 12:20:00,39.2,38.2,29.76,North,356,0.0,0.0,96,0.00,,,0.00,Wunderground v.1.12,2013-01-09 19:20:00,
2013-01-09 12:25:00,39.3,38.0,29.75,North,355,0.0,0.0,95,0.00,,,0.00,Wunderground v.1.12,2013-01-09 19:25:00,
2013-01-09 12:30:00,39.1,37.8,29.75,North,358,0.0,0.0,95,0.00,,,0.00,Wunderground v.1.12,2013-01-09 19:30:00,
2013-01-09 12:35:00,39.2,37.9,29.75,NNE,33,0.0,0.0,95,0.00,,,0.00,Wunderground v.1.12,2013-01-09 19:35:00,
2013-01-09 12:40:00,39.2,37.6,29.75,North,359,0.0,0.0,94,0.00,,,0.00,Wunderground v.1.12,2013-01-09 19:40:00,
2013-01-09 12:45:00,39.5,37.9,29.74,North,358,0.0,0.0,94,0.00,,,0.00,Wunderground v.1.12,2013-01-09 19:45:00,
2013-01-09 12:55:00,39.7,38.1,29.73,North,358,0.0,0.0,94,0.00,,,0.00,Wunderground v.1.12,2013-01-09 19:55:00,
2013-01-09 13:00:00,39.3,37.7,29.73,North,358,0.0,0.0,94,0.00,,,0.00,Wunderground v.1.12,2013-01-09 20:00:00,
2013-01-09 13:05:00,39.4,37.8,29.73,North,358,0.0,0.0,94,0.00,,,0.00,Wunderground v.1.12,2013-01-09 20:05:00,
2013-01-09 13:10:00,39.7,38.1,29.73,North,359,0.0,0.0,94,0.00,,,0.00,Wunderground v.1.12,2013-01-09 20:10:00,
2013-01-09 13:15:00,39.7,38.1,29.72,WSW,242,0.0,0.0,94,0.00,,,0.00,Wunderground v.1.12,2013-01-09 20:15:00,
2013-01-09 13:25:00,39.8,37.9,29.72,North,359,0.0,0.0,93,0.00,,,0.00,Wunderground v.1.12,2013-01-09 20:25:00,
2013-01-09 13:30:00,39.6,37.7,29.72,North,0,0.0,0.0,93,0.00,,,0.00,Wunderground v.1.12,2013-01-09 20:30:00,
2013-01-09 13:35:00,39.6,37.7,29.71,North,359,0.0,0.0,93,0.00,,,0.00,Wunderground v.1.12,2013-01-09 20:35:00,
2013-01-09 13:40:00,39.7,38.1,29.71,SW,233,0.0,0.0,94,0.00,,,0.00,Wunderground v.1.12,2013-01-09 20:40:00,
2013-01-09 13:45:00,39.6,37.7,29.71,SW,234,0.0,0.0,93,0.00,,,0.00,Wunderground v.1.12,2013-01-09 20:45:00,
2013-01-09 13:50:00,39.6,37.7,29.71,North,0,0.0,0.0,93,0.00,,,0.00,Wunderground v.1.12,2013-01-09 20:50:00,
2013-01-09 13:55:00,39.8,37.9,29.71,North,0,0.0,0.0,93,0.00,,,0.00,Wunderground v.1.12,2013-01-09 20:55:00,
2013-01-09 14:00:00,39.8,37.9,29.71,North,0,0.0,0.0,93,0.00,,,0.00,Wunderground v.1.12,2013-01-09 21:00:00,
2013-01-09 14:05:00,40.0,38.1,29.70,North,0,0.0,0.0,93,0.00,,,0.00,Wunderground v.1.12,2013-01-09 21:05:00,
2013-01-09 14:10:00,39.9,38.0,29.70,North,0,0.0,0.0,93,0.00,,,0.00,Wunderground v.1.12,2013-01-09 21:10:00,
2013-01-09 14:15:00,40.2,38.3,29.70,North,0,0.0,0.0,93,0.00,,,0.00,Wunderground v.1.12,2013-01-09 21:15:00,
2013-01-09 14:20:00,40.1,38.2,29.71,North,0,0.0,0.0,93,0.00,,,0.00,Wunderground v.1.12,2013-01-09 21:20:00,
2013-01-09 14:30:00,40.3,38.4,29.70,North,0,0.0,0.0,93,0.00,,,0.00,Wunderground v.1.12,2013-01-09 21:30:00,
2013-01-09 14:35:00,39.9,38.0,29.70,North,0,0.0,0.0,93,0.00,,,0.00,Wunderground v.1.12,2013-01-09 21:35:00,
2013-01-09 14:40:00,40.2,38.3,29.70,ENE,73,3.0,3.0,93,0.00,,,0.00,Wunderground v.1.12,2013-01-09 21:40:00,
2013-01-09 14:45:00,40.4,38.5,29.70,North,0,0.0,0.0,93,0.00,,,0.00,Wunderground v.1.12,2013-01-09 21:45:00,
2013-01-09 14:50:00,40.5,38.4,29.70,North,0,0.0,0.0,92,0.00,,,0.00,Wunderground v.1.12,2013-01-09 21:50:00,
2013-01-09 15:00:00,40.4,38.0,29.70,North,0,0.0,0.0,91,0.00,,,0.00,Wunderground v.1.12,2013-01-09 22:00:00,
2013-01-09 15:05:00,40.3,38.2,29.69,North,0,0.0,0.0,92,0.00,,,0.00,Wunderground v.1.12,2013-01-09 22:05:00,
2013-01-09 15:10:00,40.7,38.3,29.69,North,0,7.0,7.0,91,0.00,,,0.00,Wunderground v.1.12,2013-01-09 22:10:00,
2013-01-09 15:15:00,40.5,38.1,29.69,North,4,0.0,0.0,91,0.00,,,0.00,Wunderground v.1.12,2013-01-09 22:15:00,
2013-01-09 15:20:00,40.1,37.7,29.69,North,0,0.0,0.0,91,0.00,,,0.00,Wunderground v.1.12,2013-01-09 22:20:00,
2013-01-09 15:25:00,40.2,37.8,29.69,SSE,153,0.0,0.0,91,0.00,,,0.00,Wunderground v.1.12,2013-01-09 22:25:00,
2013-01-09 15:30:00,40.3,38.2,29.69,North,0,0.0,0.0,92,0.00,,,0.00,Wunderground v.1.12,2013-01-09 22:30:00,
2013-01-09 15:35:00,40.0,37.9,29.69,North,358,0.0,0.0,92,0.00,,,0.00,Wunderground v.1.12,2013-01-09 22:35:00,
2013-01-09 15:40:00,40.2,38.1,29.68,NNE,18,0.0,0.0,92,0.00,,,0.00,Wunderground v.1.12,2013-01-09 22:40:00,
2013-01-09 15:45:00,40.0,37.9,29.68,North,355,0.0,0.0,92,0.00,,,0.00,Wunderground v.1.12,2013-01-09 22:45:00,
2013-01-09 15:50:00,39.9,37.8,29.68,North,0,0.0,0.0,92,0.00,,,0.00,Wunderground v.1.12,2013-01-09 22:50:00,
2013-01-09 15:55:00,39.7,37.6,29.68,NE,46,0.0,0.0,92,0.00,,,0.00,Wunderground v.1.12,2013-01-09 22:55:00,
2013-01-09 16:05:00,40.0,37.9,29.68,North,0,0.0,0.0,92,0.00,,,0.00,Wunderground v.1.12,2013-01-09 23:05:00,
2013-01-09 16:10:00,39.7,37.6,29.68,North,0,0.0,0.0,92,0.00,,,0.00,Wunderground v.1.12,2013-01-09 23:10:00,
2013-01-09 16:15:00,40.0,37.9,29.68,North,0,0.0,0.0,92,0.00,,,0.00,Wunderground v.1.12,2013-01-09 23:15:00,
2013-01-09 16:20:00,39.7,37.6,29.68,North,0,0.0,0.0,92,0.00,,,0.00,Wunderground v.1.12,2013-01-09 23:20:00,
2013-01-09 16:25:00,39.7,37.6,29.67,ENE,67,0.0,0.0,92,0.00,,,0.00,Wunderground v.1.12,2013-01-09 23:25:00,
2013-01-09 16:35:00,39.7,37.6,29.67,North,0,0.0,0.0,92,0.00,,,0.00,Wunderground v.1.12,2013-01-09 23:35:00,
2013-01-09 16:40:00,39.9,38.0,29.67,North,0,0.0,0.0,93,0.00,,,0.00,Wunderground v.1.12,2013-01-09 23:40:00,
2013-01-09 16:45:00,39.9,37.8,29.67,North,0,0.0,0.0,92,0.00,,,0.00,Wunderground v.1.12,2013-01-09 23:45:00,
2013-01-09 16:50:00,39.4,37.5,29.67,North,0,1.0,1.0,93,0.00,,,0.00,Wunderground v.1.12,2013-01-09 23:50:00,
2013-01-09 16:55:00,39.5,37.4,29.67,North,0,0.0,0.0,92,0.00,,,0.00,Wunderground v.1.12,2013-01-09 23:55:00,
2013-01-09 17:05:00,39.6,37.7,29.66,North,0,0.0,0.0,93,0.00,,,0.00,Wunderground v.1.12,2013-01-10 00:05:00,
2013-01-09 17:10:00,39.4,37.5,29.66,North,0,0.0,0.0,93,0.00,,,0.00,Wunderground v.1.12,2013-01-10 00:10:00,
2013-01-09 17:15:00,39.2,37.6,29.66,North,0,0.0,0.0,94,0.00,,,0.00,Wunderground v.1.12,2013-01-10 00:15:00,
2013-01-09 17:20:00,39.2,37.3,29.66,North,0,0.0,0.0,93,0.00,,,0.00,Wunderground v.1.12,2013-01-10 00:20:00,
2013-01-09 17:25:00,39.3,37.7,29.66,North,0,0.0,0.0,94,0.00,,,0.00,Wunderground v.1.12,2013-01-10 00:25:00,
2013-01-09 17:30:00,38.9,37.3,29.66,North,0,0.0,0.0,94,0.00,,,0.00,Wunderground v.1.12,2013-01-10 00:30:00,
2013-01-09 17:40:00,38.9,37.3,29.66,North,0,0.0,0.0,94,0.00,,,0.00,Wunderground v.1.12,2013-01-10 00:40:00,
2013-01-09 17:45:00,38.3,37.0,29.65,North,0,0.0,0.0,95,0.00,,,0.00,Wunderground v.1.12,2013-01-10 00:45:00,
2013-01-09 17:50:00,38.2,36.6,29.66,North,0,0.0,0.0,94,0.00,,,0.00,Wunderground v.1.12,2013-01-10 00:50:00,
2013-01-09 17:55:00,38.2,36.9,29.65,North,0,0.0,0.0,95,0.00,,,0.00,Wunderground v.1.12,2013-01-10 00:55:00,
2013-01-09 18:00:00,38.1,36.8,29.65,North,0,0.0,0.0,95,0.00,,,0.00,Wunderground v.1.12,2013-01-10 01:00:00,
2013-01-09 18:05:00,38.2,36.9,29.65,NE,52,0.0,0.0,95,0.00,,,0.00,Wunderground v.1.12,2013-01-10 01:05:00,
2013-01-09 18:10:00,38.4,37.1,29.65,North,0,0.0,0.0,95,0.00,,,0.00,Wunderground v.1.12,2013-01-10 01:10:00,
2013-01-09 18:15:00,38.5,37.2,29.65,North,0,0.0,0.0,95,0.00,,,0.00,Wunderground v.1.12,2013-01-10 01:15:00,
2013-01-09 18:20:00,38.6,37.3,29.65,North,0,0.0,0.0,95,0.00,,,0.00,Wunderground v.1.12,2013-01-10 01:20:00,
2013-01-09 18:25:00,38.8,37.2,29.65,North,0,0.0,0.0,94,0.00,,,0.00,Wunderground v.1.12,2013-01-10 01:25:00,
2013-01-09 18:30:00,39.0,37.4,29.65,North,0,0.0,0.0,94,0.00,,,0.00,Wunderground v.1.12,2013-01-10 01:30:00,
2013-01-09 18:35:00,38.9,37.3,29.65,North,0,0.0,0.0,94,0.00,,,0.00,Wunderground v.1.12,2013-01-10 01:35:00,
2013-01-09 18:40:00,39.2,37.6,29.65,North,0,0.0,0.0,94,0.00,,,0.00,Wunderground v.1.12,2013-01-10 01:40:00,
2013-01-09 18:45:00,39.2,37.6,29.65,North,5,0.0,0.0,94,0.00,,,0.00,Wunderground v.1.12,2013-01-10 01:45:00,
2013-01-09 18:50:00,39.4,37.8,29.66,North,0,0.0,0.0,94,0.00,,,0.00,Wunderground v.1.12,2013-01-10 01:50:00,
2013-01-09 18:55:00,38.7,37.4,29.67,North,0,0.0,0.0,95,0.00,,,0.00,Wunderground v.1.12,2013-01-10 01:55:00,
2013-01-09 19:00:00,39.0,38.0,29.67,North,0,0.0,0.0,96,0.00,,,0.00,Wunderground v.1.12,2013-01-10 02:00:00,
2013-01-09 19:05:00,38.5,37.5,29.67,North,0,0.0,0.0,96,0.00,,,0.00,Wunderground v.1.12,2013-01-10 02:05:00,
2013-01-09 19:15:00,38.2,37.2,29.67,North,0,0.0,0.0,96,0.00,,,0.00,Wunderground v.1.12,2013-01-10 02:15:00,
2013-01-09 19:20:00,37.8,36.8,29.67,North,0,0.0,0.0,96,0.00,,,0.00,Wunderground v.1.12,2013-01-10 02:20:00,
2013-01-09 19:25:00,37.6,36.6,29.68,NE,35,0.0,0.0,96,0.00,,,0.00,Wunderground v.1.12,2013-01-10 02:25:00,
2013-01-09 19:30:00,37.7,36.9,29.68,SW,225,0.0,0.0,97,0.00,,,0.00,Wunderground v.1.12,2013-01-10 02:30:00,
2013-01-09 19:35:00,37.2,36.4,29.68,NE,50,0.0,0.0,97,0.00,,,0.00,Wunderground v.1.12,2013-01-10 02:35:00,
2013-01-09 19:45:00,37.1,36.3,29.69,North,0,2.0,2.0,97,0.00,,,0.00,Wunderground v.1.12,2013-01-10 02:45:00,
2013-01-09 19:50:00,36.7,35.9,29.69,SW,218,0.0,0.0,97,0.00,,,0.00,Wunderground v.1.12,2013-01-10 02:50:00,
2013-01-09 19:55:00,36.8,35.8,29.69,ESE,118,0.0,0.0,96,0.00,,,0.00,Wunderground v.1.12,2013-01-10 02:55:00,
2013-01-09 20:00:00,36.6,35.6,29.69,North,0,0.0,0.0,96,0.00,,,0.00,Wunderground v.1.12,2013-01-10 03:00:00,
2013-01-09 20:05:00,36.3,35.5,29.70,North,359,1.0,1.0,97,0.00,,,0.00,Wunderground v.1.12,2013-01-10 03:05:00,
2013-01-09 20:15:00,35.9,35.4,29.70,North,0,0.0,0.0,98,0.00,,,0.00,Wunderground v.1.12,2013-01-10 03:15:00,
2013-01-09 20:25:00,35.9,35.6,29.70,North,0,0.0,0.0,99,0.00,,,0.00,Wunderground v.1.12,2013-01-10 03:25:00,
2013-01-09 20:30:00,35.9,35.6,29.70,North,0,0.0,0.0,99,0.00,,,0.00,Wunderground v.1.12,2013-01-10 03:30:00,
2013-01-09 20:35:00,35.9,35.6,29.70,NNW,328,0.0,0.0,99,0.00,,,0.00,Wunderground v.1.12,2013-01-10 03:35:00,
2013-01-09 20:40:00,35.8,35.5,29.70,NW,318,2.0,2.0,99,0.00,,,0.00,Wunderground v.1.12,2013-01-10 03:40:00,
2013-01-09 20:45:00,36.0,35.7,29.70,NW,309,0.0,0.0,99,0.00,,,0.00,Wunderground v.1.12,2013-01-10 03:45:00,
2013-01-09 20:50:00,35.9,35.6,29.70,NW,304,0.0,0.0,99,0.00,,,0.00,Wunderground v.1.12,2013-01-10 03:50:00,
2013-01-09 20:55:00,35.6,35.3,29.70,WNW,288,0.0,0.0,99,0.00,,,0.00,Wunderground v.1.12,2013-01-10 03:55:00,
2013-01-09 21:00:00,35.5,35.2,29.70,WNW,293,0.0,0.0,99,0.00,,,0.00,Wunderground v.1.12,2013-01-10 04:00:00,
2013-01-09 21:10:00,35.4,35.1,29.71,NW,306,0.0,0.0,99,0.00,,,0.00,Wunderground v.1.12,2013-01-10 04:10:00,
2013-01-09 21:15:00,35.6,35.3,29.71,NW,310,0.0,0.0,99,0.00,,,0.00,Wunderground v.1.12,2013-01-10 04:15:00,
2013-01-09 21:20:00,35.4,35.4,29.71,NW,313,0.0,0.0,100,0.00,,,0.00,Wunderground v.1.12,2013-01-10 04:20:00,
2013-01-09 21:25:00,35.2,34.9,29.71,WNW,295,0.0,0.0,99,0.00,,,0.00,Wunderground v.1.12,2013-01-10 04:25:00,
2013-01-09 21:35:00,35.5,35.0,29.71,WNW,302,0.0,0.0,98,0.00,,,0.00,Wunderground v.1.12,2013-01-10 04:35:00,
2013-01-09 21:40:00,35.0,34.5,29.71,NW,306,0.0,0.0,98,0.00,,,0.00,Wunderground v.1.12,2013-01-10 04:40:00,
2013-01-09 21:45:00,35.1,34.6,29.71,NW,309,0.0,0.0,98,0.00,,,0.00,Wunderground v.1.12,2013-01-10 04:45:00,
2013-01-09 21:55:00,35.0,34.5,29.71,WNW,301,0.0,0.0,98,0.00,,,0.00,Wunderground v.1.12,2013-01-10 04:55:00,
2013-01-09 22:00:00,34.7,34.4,29.71,NW,309,0.0,0.0,99,0.00,,,0.00,Wunderground v.1.12,2013-01-10 05:00:00,
2013-01-09 22:05:00,34.9,34.6,29.71,NW,304,0.0,0.0,99,0.00,,,0.00,Wunderground v.1.12,2013-01-10 05:05:00,
2013-01-09 22:10:00,34.9,34.6,29.71,NW,307,0.0,0.0,99,0.00,,,0.00,Wunderground v.1.12,2013-01-10 05:10:00,
2013-01-09 22:15:00,35.0,34.7,29.71,NW,308,0.0,0.0,99,0.00,,,0.00,Wunderground v.1.12,2013-01-10 05:15:00,
2013-01-09 22:20:00,34.8,34.5,29.71,WNW,302,0.0,0.0,99,0.00,,,0.00,Wunderground v.1.12,2013-01-10 05:20:00,
2013-01-09 22:30:00,34.6,34.3,29.72,WNW,300,0.0,0.0,99,0.00,,,0.00,Wunderground v.1.12,2013-01-10 05:30:00,
2013-01-09 22:35:00,34.7,34.4,29.72,WNW,300,0.0,0.0,99,0.00,,,0.00,Wunderground v.1.12,2013-01-10 05:35:00,
2013-01-09 22:45:00,34.2,33.9,29.73,WNW,300,0.0,0.0,99,0.00,,,0.00,Wunderground v.1.12,2013-01-10 05:45:00,
2013-01-09 22:50:00,34.5,34.2,29.73,NW,305,0.0,0.0,99,0.00,,,0.00,Wunderground v.1.12,2013-01-10 05:50:00,
2013-01-09 23:00:00,34.3,34.0,29.73,WNW,293,0.0,0.0,99,0.00,,,0.00,Wunderground v.1.12,2013-01-10 06:00:00,
2013-01-09 23:05:00,34.0,33.5,29.73,WNW,295,0.0,0.0,98,0.00,,,0.00,Wunderground v.1.12,2013-01-10 06:05:00,
2013-01-09 23:10:00,34.4,33.9,29.73,WNW,290,0.0,0.0,98,0.00,,,0.00,Wunderground v.1.12,2013-01-10 06:10:00,
2013-01-09 23:15:00,34.2,33.9,29.73,WNW,296,0.0,0.0,99,0.00,,,0.00,Wunderground v.1.12,2013-01-10 06:15:00,
2013-01-09 23:20:00,34.2,33.9,29.73,WNW,291,0.0,0.0,99,0.00,,,0.00,Wunderground v.1.12,2013-01-10 06:20:00,
2013-01-09 23:25:00,34.0,33.7,29.73,NE,53,0.0,0.0,99,0.00,,,0.00,Wunderground v.1.12,2013-01-10 06:25:00,
2013-01-09 23:35:00,34.0,33.5,29.74,SSE,168,0.0,0.0,98,0.00,,,0.00,Wunderground v.1.12,2013-01-10 06:35:00,
2013-01-09 23:40:00,33.7,33.2,29.74,SSE,168,0.0,0.0,98,0.00,,,0.00,Wunderground v.1.12,2013-01-10 06:40:00,
2013-01-09 23:45:00,33.8,33.5,29.74,SSE,168,0.0,0.0,99,0.00,,,0.00,Wunderground v.1.12,2013-01-10 06:45:00,
2013-01-09 23:50:00,33.7,33.4,29.74,SSE,168,0.0,0.0,99,0.00,,,0.00,Wunderground v.1.12,2013-01-10 06:50:00,
2013-01-09 23:55:00,34.2,33.7,29.74,SSE,168,0.0,0.0,98,0.00,,,0.00,Wunderground v.1.12,2013-01-10 06:55:00,